Terminal Aerodrome Forecast
Issued by NWS

Home | Current Version | Previous Version | Text Only | Print | Product List | Glossary On
Versions: 1 2 3 4 5 6 7 8 9 10 11 12 13 14
000
FTUS45 KREV 071146
TAFMMH
TAF
KMMH 071146Z 0712/0812 VRB04KT P6SM SCT180
     FM072300 18007KT P6SM SCT120 OVC150
     FM080300 29007KT P6SM VCSH SCT045 OVC060=

USA.gov is the U.S. government's official web portal to all federal, state and local government web resources and services.